createdAt,value
2024-01-16T00:01:01.142Z,93710.95
2024-01-16T00:04:49.421Z,93719.51
2024-01-16T00:08:38.658Z,93747.31
2024-01-16T00:12:00.320Z,93765.39
2024-01-16T00:15:31.273Z,93776.01
2024-01-16T00:19:19.508Z,93760.35
2024-01-16T00:23:08.246Z,93751.08
2024-01-16T00:26:49.124Z,93723.56
2024-01-16T00:30:37.572Z,93719.27
2024-01-16T00:34:25.856Z,93750.67
2024-01-16T00:38:14.471Z,93752.47
2024-01-16T00:42:02.878Z,93756.10
2024-01-16T00:45:52.093Z,93763.70
2024-01-16T00:49:40.264Z,93756.67
2024-01-16T00:53:12.849Z,93756.92
2024-01-16T00:57:01.252Z,93773.63
2024-01-16T01:00:47.873Z,93787.98
2024-01-16T01:04:38.778Z,93789.28
2024-01-16T01:08:06.821Z,93787.23
2024-01-16T01:11:45.222Z,93792.64
2024-01-16T01:15:33.482Z,93808.75
2024-01-16T01:19:13.327Z,93805.73
2024-01-16T01:23:01.831Z,93794.04
2024-01-16T01:26:50.132Z,93804.23
2024-01-16T01:30:38.671Z,93799.55
2024-01-16T01:34:10.412Z,93806.02
2024-01-16T01:37:54.627Z,93815.64
2024-01-16T01:41:36.012Z,93802.21
2024-01-16T01:45:03.732Z,93795.02
2024-01-16T01:48:34.434Z,93793.73
2024-01-16T01:52:04.124Z,93794.27
2024-01-16T01:55:37.993Z,93790.38
2024-01-16T01:59:26.160Z,93794.48
2024-01-16T02:02:49.201Z,93795.52
2024-01-16T02:06:18.418Z,93806.95
2024-01-16T02:10:06.909Z,93816.95
2024-01-16T02:13:55.095Z,93821.64
2024-01-16T02:17:43.526Z,93832.36
2024-01-16T02:21:31.857Z,93836.81
2024-01-16T02:25:19.953Z,93837.98
2024-01-16T02:28:40.558Z,93836.11
2024-01-16T02:31:38.670Z,93841.60
2024-01-16T02:35:19.903Z,93837.94
2024-01-16T02:39:07.872Z,93827.21
2024-01-16T02:42:38.598Z,93816.73
2024-01-16T02:46:26.795Z,93832.59
2024-01-16T02:50:15.161Z,93839.17
2024-01-16T02:53:48.827Z,93850.95
2024-01-16T02:57:17.401Z,93854.35
2024-01-16T03:00:55.645Z,93850.55
2024-01-16T03:04:09.670Z,93854.07
2024-01-16T03:07:57.771Z,93855.46
2024-01-16T03:11:30.117Z,93858.39
2024-01-16T03:15:19.688Z,93861.25
2024-01-16T03:19:07.989Z,93868.98
2024-01-16T03:22:56.348Z,93878.39
2024-01-16T03:26:44.808Z,93883.59
2024-01-16T03:30:32.530Z,93879.04
2024-01-16T03:33:42.587Z,93887.76
2024-01-16T03:37:16.131Z,93898.34
2024-01-16T03:40:54.251Z,93901.73
2024-01-16T03:44:42.818Z,93900.72
2024-01-16T03:47:34.392Z,93911.80
2024-01-16T03:50:55.873Z,93921.05
2024-01-16T03:54:19.521Z,93928.35
2024-01-16T03:57:37.362Z,93929.80
2024-01-16T04:01:09.346Z,93928.95
2024-01-16T04:04:49.250Z,93935.08
2024-01-16T04:08:37.443Z,93936.66
2024-01-16T04:12:25.619Z,93926.55
2024-01-16T04:16:13.761Z,93907.92
2024-01-16T04:19:47.266Z,93915.84
2024-01-16T04:23:28.300Z,93925.08
2024-01-16T04:26:56.271Z,93941.23
2024-01-16T04:30:44.291Z,93946.33
2024-01-16T04:34:32.801Z,93956.81
2024-01-16T04:38:12.832Z,93965.84
2024-01-16T04:42:01.037Z,93973.41
2024-01-16T04:45:49.918Z,93975.10
2024-01-16T04:49:30.141Z,93984.20
2024-01-16T04:53:02.385Z,93978.08
2024-01-16T04:56:50.606Z,93978.61
2024-01-16T05:00:29.020Z,93987.67
2024-01-16T05:04:06.441Z,93993.00
2024-01-16T05:07:07.395Z,93997.73
2024-01-16T05:10:42.733Z,94008.52
2024-01-16T05:14:31.855Z,94014.58
2024-01-16T05:18:20.294Z,94026.67
2024-01-16T05:22:08.546Z,94038.73
2024-01-16T05:25:47.316Z,94049.68
2024-01-16T05:29:29.031Z,94052.55
2024-01-16T05:33:11.769Z,94063.80
2024-01-16T05:36:49.262Z,94063.79
2024-01-16T05:40:18.926Z,94069.55
2024-01-16T05:43:59.278Z,94076.10
2024-01-16T05:47:31.820Z,94088.10
2024-01-16T05:50:27.075Z,94095.08
2024-01-16T05:53:58.436Z,94097.92
2024-01-16T05:57:37.869Z,94102.23
2024-01-16T06:01:18.791Z,94104.67
2024-01-16T06:04:06.507Z,94115.67
2024-01-16T06:06:47.375Z,94122.73
2024-01-16T06:10:35.999Z,94127.72
2024-01-16T06:14:24.136Z,94136.40
2024-01-16T06:17:55.460Z,94140.35
2024-01-16T06:21:36.558Z,94142.57
2024-01-16T06:25:07.468Z,94156.84
2024-01-16T06:28:51.677Z,94170.56
2024-01-16T06:32:29.660Z,94179.54
2024-01-16T06:35:30.543Z,94184.93
2024-01-16T06:39:08.593Z,94187.21
2024-01-16T06:41:46.293Z,94191.28
2024-01-16T06:45:16.914Z,94198.54
2024-01-16T06:48:39.699Z,94199.36
2024-01-16T06:52:01.868Z,94207.30
2024-01-16T06:54:55.735Z,94212.18
2024-01-16T06:58:15.468Z,94217.81
2024-01-16T07:01:57.610Z,94226.89
2024-01-16T07:05:35.840Z,94225.39
2024-01-16T07:09:24.081Z,94231.48
2024-01-16T07:12:34.694Z,94237.48
2024-01-16T07:16:22.963Z,94243.35
2024-01-16T07:20:10.953Z,94247.77
2024-01-16T07:23:39.600Z,94250.18
2024-01-16T07:26:57.761Z,94252.41
2024-01-16T07:30:24.302Z,94252.07
2024-01-16T07:34:12.494Z,94260.98
2024-01-16T07:37:50.569Z,94267.23
2024-01-16T07:41:21.775Z,94268.52
2024-01-16T07:45:01.347Z,94271.90
2024-01-16T07:48:38.951Z,94280.74
2024-01-16T07:52:23.932Z,94287.08
2024-01-16T07:55:45.668Z,94290.00
2024-01-16T07:59:32.279Z,94302.98
2024-01-16T08:03:03.058Z,94309.73
2024-01-16T08:06:51.391Z,94313.41
2024-01-16T08:09:39.230Z,94321.45
2024-01-16T08:13:03.283Z,94322.27
2024-01-16T08:16:45.293Z,94325.46
2024-01-16T08:20:33.410Z,94330.33
2024-01-16T08:23:41.454Z,94336.64
2024-01-16T08:27:28.460Z,94339.16
2024-01-16T08:30:59.539Z,94343.63
2024-01-16T08:34:27.862Z,94355.66
2024-01-16T08:37:40.791Z,94359.70
2024-01-16T08:41:09.386Z,94361.77
2024-01-16T08:44:57.756Z,94373.34
2024-01-16T08:48:18.195Z,94376.52
2024-01-16T08:52:01.265Z,94377.06
2024-01-16T08:55:36.869Z,94383.89
2024-01-16T08:59:24.562Z,94384.95
2024-01-16T09:03:12.973Z,94389.05
2024-01-16T09:06:44.556Z,94390.10
2024-01-16T09:10:22.984Z,94393.78
2024-01-16T09:14:11.170Z,94399.08
2024-01-16T09:17:59.350Z,94395.23
2024-01-16T09:21:25.299Z,94404.96
2024-01-16T09:25:03.511Z,94402.39
2024-01-16T09:28:31.944Z,94403.35
2024-01-16T09:32:20.304Z,94409.89
2024-01-16T09:36:08.360Z,94417.19
2024-01-16T09:39:32.168Z,94412.31
2024-01-16T09:43:03.505Z,94413.73
2024-01-16T09:46:51.535Z,94419.27
2024-01-16T09:49:42.370Z,94420.79
2024-01-16T09:53:00.208Z,94423.14
2024-01-16T09:56:14.627Z,94425.63
2024-01-16T09:59:53.038Z,94425.83
2024-01-16T10:03:41.294Z,94427.45
2024-01-16T10:07:29.381Z,94430.95
2024-01-16T10:10:59.033Z,94429.10
2024-01-16T10:14:37.518Z,94433.96
2024-01-16T10:18:02.247Z,94435.98
2024-01-16T10:21:43.267Z,94438.73
2024-01-16T10:25:23.198Z,94437.42
2024-01-16T10:28:40.268Z,94434.89
2024-01-16T10:31:31.817Z,94439.59
2024-01-16T10:34:59.182Z,94442.20
2024-01-16T10:38:30.536Z,94441.70
2024-01-16T10:41:36.259Z,94449.99
2024-01-16T10:44:53.191Z,94456.38
2024-01-16T10:48:05.240Z,94459.66
2024-01-16T10:51:19.288Z,94456.97
2024-01-16T10:54:08.638Z,94461.15
2024-01-16T10:57:25.398Z,94461.17
2024-01-16T11:00:33.930Z,94461.31
2024-01-16T11:04:01.010Z,94458.04
2024-01-16T11:07:12.916Z,94466.05
2024-01-16T11:10:44.227Z,94465.88
2024-01-16T11:14:32.651Z,94470.95
2024-01-16T11:17:43.632Z,94478.90
2024-01-16T11:21:11.043Z,94478.84
2024-01-16T11:24:04.910Z,94487.21
2024-01-16T11:27:21.033Z,94489.54
2024-01-16T11:31:04.101Z,94492.46
2024-01-16T11:34:50.965Z,94493.00
2024-01-16T11:38:09.632Z,94499.67
2024-01-16T11:41:51.197Z,94500.50
2024-01-16T11:45:15.667Z,94499.48
2024-01-16T11:48:27.358Z,94502.96
2024-01-16T11:52:07.153Z,94503.13
2024-01-16T11:56:10.617Z,94506.75
2024-01-16T12:00:03.719Z,94510.79
2024-01-16T12:03:55.005Z,94522.86
2024-01-16T12:07:45.573Z,94520.94
2024-01-16T12:11:41.030Z,94527.81
2024-01-16T12:15:32.042Z,94535.98
2024-01-16T12:19:20.534Z,94539.81
2024-01-16T12:22:51.230Z,94548.34
2024-01-16T12:26:39.411Z,94539.02
2024-01-16T12:30:28.446Z,94549.04
2024-01-16T12:34:16.857Z,94548.62
2024-01-16T12:38:07.764Z,94546.18
2024-01-16T12:41:42.335Z,94554.59
2024-01-16T12:45:31.571Z,94558.84
2024-01-16T12:49:11.608Z,94569.73
2024-01-16T12:52:41.444Z,94573.79
2024-01-16T12:56:09.668Z,94579.77
2024-01-16T12:59:51.143Z,94580.85
2024-01-16T13:03:39.558Z,94590.05
2024-01-16T13:07:27.782Z,94593.80
2024-01-16T13:11:16.471Z,94598.48
2024-01-16T13:14:57.230Z,94597.01
2024-01-16T13:18:36.829Z,94602.70
2024-01-16T13:22:15.055Z,94599.57
2024-01-16T13:26:03.312Z,94602.20
2024-01-16T13:29:46.140Z,94612.00
2024-01-16T13:33:34.472Z,94619.48
2024-01-16T13:37:15.233Z,94620.10
2024-01-16T13:40:30.442Z,94627.23
2024-01-16T13:44:11.008Z,94628.95
2024-01-16T13:47:36.556Z,94629.21
2024-01-16T13:51:03.040Z,94630.08
2024-01-16T13:54:15.569Z,94634.08
2024-01-16T13:57:49.381Z,94641.05
2024-01-16T14:01:17.471Z,94644.48
2024-01-16T14:04:47.079Z,94647.71
2024-01-16T14:08:22.176Z,94647.64
2024-01-16T14:11:55.599Z,94651.21
2024-01-16T14:15:21.144Z,94656.89
2024-01-16T14:18:37.707Z,94660.62
2024-01-16T14:22:19.081Z,94660.70
2024-01-16T14:26:02.296Z,94660.73
2024-01-16T14:29:50.984Z,94661.39
2024-01-16T14:33:38.495Z,94666.66
2024-01-16T14:37:26.913Z,94670.53
2024-01-16T14:41:05.481Z,94673.52
2024-01-16T14:44:53.564Z,94681.08
2024-01-16T14:48:42.011Z,94682.63
2024-01-16T14:52:19.836Z,94687.47
2024-01-16T14:56:07.888Z,94694.53
2024-01-16T14:59:56.329Z,94699.83
2024-01-16T15:03:44.777Z,94699.90
2024-01-16T15:07:33.246Z,94718.13
2024-01-16T15:11:20.482Z,94729.85
2024-01-16T15:15:08.808Z,94734.56
2024-01-16T15:18:41.407Z,94738.66
2024-01-16T15:22:19.673Z,94747.67
2024-01-16T15:26:06.856Z,94755.80
2024-01-16T15:29:55.175Z,94760.55
2024-01-16T15:33:42.078Z,94769.18
2024-01-16T15:37:29.558Z,94769.29
2024-01-16T15:40:57.275Z,94774.61
2024-01-16T15:44:27.814Z,94781.36
2024-01-16T15:48:04.860Z,94790.84
2024-01-16T15:51:53.091Z,94801.14
2024-01-16T15:55:41.196Z,94806.36
2024-01-16T15:59:28.300Z,94806.88
2024-01-16T16:03:19.738Z,94809.75
2024-01-16T16:07:08.042Z,94809.25
2024-01-16T16:10:46.811Z,94815.15
2024-01-16T16:14:35.006Z,94819.68
2024-01-16T16:18:03.216Z,94826.65
2024-01-16T16:21:51.392Z,94829.29
2024-01-16T16:25:22.746Z,94838.71
2024-01-16T16:29:10.820Z,94841.73
2024-01-16T16:32:58.976Z,94846.50
2024-01-16T16:36:47.231Z,94854.70
2024-01-16T16:40:35.378Z,94852.12
2024-01-16T16:44:23.693Z,94855.89
2024-01-16T16:48:10.846Z,94853.73
2024-01-16T16:51:59.278Z,94859.27
2024-01-16T16:55:47.874Z,94862.25
2024-01-16T16:59:36.147Z,94863.21
2024-01-16T17:03:24.420Z,94869.69
2024-01-16T17:07:13.785Z,94875.04
2024-01-16T17:11:02.612Z,94872.02
2024-01-16T17:14:50.705Z,94873.90
2024-01-16T17:18:38.362Z,94877.57
2024-01-16T17:22:26.966Z,94882.84
2024-01-16T17:26:05.398Z,94881.65
2024-01-16T17:29:43.638Z,94890.20
2024-01-16T17:32:41.787Z,94889.17
2024-01-16T17:36:08.335Z,94893.86
2024-01-16T17:39:02.300Z,94894.42
2024-01-16T17:42:02.009Z,94893.73
2024-01-16T17:44:51.292Z,94897.39
2024-01-16T17:48:02.474Z,94903.89
2024-01-16T17:51:49.964Z,94903.04
2024-01-16T17:55:41.079Z,94902.90
2024-01-16T17:59:20.700Z,94899.23
2024-01-16T18:02:51.866Z,94904.98
2024-01-16T18:06:40.651Z,94904.95
2024-01-16T18:09:34.724Z,94910.67
2024-01-16T18:13:12.881Z,94910.36
2024-01-16T18:16:39.884Z,94912.90
2024-01-16T18:20:27.958Z,94915.05
2024-01-16T18:23:58.766Z,94924.96
2024-01-16T18:27:26.848Z,94922.87
2024-01-16T18:30:40.280Z,94928.85
2024-01-16T18:33:41.443Z,94938.00
2024-01-16T18:37:08.277Z,94938.55
2024-01-16T18:40:50.279Z,94939.69
2024-01-16T18:44:38.361Z,94944.91
2024-01-16T18:48:05.383Z,94944.80
2024-01-16T18:51:53.631Z,94949.08
2024-01-16T18:55:42.283Z,94959.21
2024-01-16T18:59:30.360Z,94959.52
2024-01-16T19:03:18.694Z,94970.63
2024-01-16T19:07:07.450Z,94979.55
2024-01-16T19:10:45.918Z,94978.59
2024-01-16T19:13:49.983Z,94983.50
2024-01-16T19:17:19.379Z,94992.52
2024-01-16T19:21:07.988Z,94989.12
2024-01-16T19:24:30.094Z,94987.91
2024-01-16T19:27:50.365Z,94988.71
2024-01-16T19:31:04.478Z,94984.04
2024-01-16T19:34:35.320Z,94989.48
2024-01-16T19:38:23.382Z,94992.27
2024-01-16T19:41:51.512Z,94983.96
2024-01-16T19:45:29.610Z,94998.48
2024-01-16T19:49:07.004Z,94997.28
2024-01-16T19:52:55.301Z,94993.95
2024-01-16T19:56:26.002Z,94996.54
2024-01-16T19:59:29.404Z,94991.05
2024-01-16T20:02:50.949Z,94994.95
2024-01-16T20:06:39.721Z,94999.54
2024-01-16T20:10:28.265Z,95002.45
2024-01-16T20:13:59.755Z,95006.95
2024-01-16T20:17:42.818Z,95005.59
2024-01-16T20:21:31.181Z,95002.36
2024-01-16T20:24:26.321Z,95001.61
2024-01-16T20:28:14.367Z,95003.79
2024-01-16T20:31:29.847Z,95002.00
2024-01-16T20:35:17.899Z,95005.43
2024-01-16T20:38:48.570Z,95016.69
2024-01-16T20:42:03.194Z,95009.21
2024-01-16T20:45:51.481Z,95010.35
2024-01-16T20:48:49.584Z,95016.92
2024-01-16T20:52:38.131Z,95027.39
2024-01-16T20:56:26.337Z,95037.61
2024-01-16T21:00:15.284Z,95046.54
2024-01-16T21:03:51.139Z,95050.47
2024-01-16T21:07:40.096Z,95058.25
2024-01-16T21:11:28.386Z,95055.09
2024-01-16T21:15:13.286Z,95060.88
2024-01-16T21:19:01.844Z,95067.23
2024-01-16T21:22:50.044Z,95073.91
2024-01-16T21:26:31.359Z,95082.98
2024-01-16T21:29:59.304Z,95086.19
2024-01-16T21:33:47.709Z,95083.65
2024-01-16T21:37:01.713Z,95084.79
2024-01-16T21:40:49.908Z,95084.79
2024-01-16T21:44:38.035Z,95084.27
2024-01-16T21:48:19.270Z,95089.99
2024-01-16T21:51:47.365Z,95091.52
2024-01-16T21:55:26.549Z,95094.26
2024-01-16T21:59:06.306Z,95098.94
2024-01-16T22:02:44.760Z,95102.84
2024-01-16T22:06:34.179Z,95105.80
2024-01-16T22:10:12.418Z,95114.13
2024-01-16T22:13:53.696Z,95116.42
2024-01-16T22:17:21.691Z,95119.82
2024-01-16T22:21:09.005Z,95118.23
2024-01-16T22:24:57.299Z,95114.22
2024-01-16T22:28:45.946Z,95119.52
2024-01-16T22:32:26.720Z,95126.96
2024-01-16T22:35:54.980Z,95119.41
2024-01-16T22:38:41.995Z,95118.59
2024-01-16T22:42:19.891Z,95116.25
2024-01-16T22:45:58.417Z,95107.58
2024-01-16T22:49:46.790Z,95107.68
2024-01-16T22:53:14.174Z,95099.86
2024-01-16T22:56:45.380Z,95102.70
2024-01-16T23:00:39.296Z,95099.84
2024-01-16T23:03:31.094Z,95105.02
2024-01-16T23:07:09.800Z,95112.96
2024-01-16T23:10:55.322Z,95108.80
2024-01-16T23:14:27.619Z,95105.34
2024-01-16T23:18:16.000Z,95104.93
2024-01-16T23:22:04.224Z,95100.02
2024-01-16T23:25:40.766Z,95098.05
2024-01-16T23:29:18.965Z,95104.13
2024-01-16T23:32:26.059Z,95096.73
2024-01-16T23:36:14.760Z,95086.36
2024-01-16T23:40:02.866Z,95084.95
2024-01-16T23:43:43.885Z,95092.95
2024-01-16T23:47:32.259Z,95092.10
2024-01-16T23:51:21.304Z,95086.80
2024-01-16T23:55:09.670Z,95090.52
2024-01-16T23:58:58.032Z,95083.06
